createdAt,value
2022-07-25T00:00:49.370Z,9.95
2022-07-25T00:01:53.296Z,8.85
2022-07-25T00:02:55.996Z,8.13
2022-07-25T00:03:58.652Z,8.38
2022-07-25T00:05:01.198Z,9.05
2022-07-25T00:06:03.639Z,8.18
2022-07-25T00:07:05.931Z,9.25
2022-07-25T00:08:08.244Z,9.57
2022-07-25T00:09:10.561Z,9.02
2022-07-25T00:10:12.885Z,6.97
2022-07-25T00:11:15.195Z,12.23
2022-07-25T00:12:17.618Z,7.57
2022-07-25T00:13:19.971Z,7.85
2022-07-25T00:14:22.211Z,12.48
2022-07-25T00:15:24.556Z,8.82
2022-07-25T00:16:27.229Z,7.78
2022-07-25T00:17:29.537Z,8.90
2022-07-25T00:18:31.811Z,9.43
2022-07-25T00:19:34.073Z,6.65
2022-07-25T00:20:36.354Z,6.60
2022-07-25T00:21:38.655Z,7.47
2022-07-25T00:22:40.889Z,7.90
2022-07-25T00:23:43.289Z,7.53
2022-07-25T00:24:45.505Z,9.18
2022-07-25T00:25:47.770Z,10.20
2022-07-25T00:26:50.158Z,8.05
2022-07-25T00:27:52.819Z,8.50
2022-07-25T00:28:55.099Z,8.48
2022-07-25T00:29:57.355Z,9.55
2022-07-25T00:30:59.814Z,7.22
2022-07-25T00:32:02.085Z,10.52
2022-07-25T00:33:04.376Z,7.40
2022-07-25T00:34:06.942Z,8.20
2022-07-25T00:35:09.662Z,8.90
2022-07-25T00:36:12.034Z,7.60
2022-07-25T00:37:14.295Z,7.57
2022-07-25T00:38:16.581Z,8.38
2022-07-25T00:39:18.841Z,7.63
2022-07-25T00:40:21.202Z,10.35
2022-07-25T00:41:23.539Z,7.45
2022-07-25T00:42:25.822Z,11.82
2022-07-25T00:43:28.057Z,10.32
2022-07-25T00:44:32.433Z,9.25
2022-07-25T00:45:34.754Z,7.35
2022-07-25T00:46:39.254Z,7.70
2022-07-25T00:47:41.543Z,7.95
2022-07-25T00:48:44.600Z,7.05
2022-07-25T00:49:46.955Z,9.13
2022-07-25T00:50:49.187Z,8.23
2022-07-25T00:51:52.959Z,7.22
2022-07-25T00:52:55.651Z,7.53
2022-07-25T00:53:57.926Z,9.02
2022-07-25T00:55:01.006Z,9.68
2022-07-25T00:56:04.474Z,8.65
2022-07-25T00:57:06.768Z,7.82
2022-07-25T00:58:08.994Z,7.35
2022-07-25T00:59:11.517Z,8.82
2022-07-25T01:00:15.227Z,7.95
2022-07-25T01:01:17.545Z,7.85
2022-07-25T01:02:19.922Z,8.65
2022-07-25T01:03:22.255Z,7.95
2022-07-25T01:04:24.709Z,7.35
2022-07-25T01:05:27.134Z,9.30
2022-07-25T01:06:29.660Z,7.97
2022-07-25T01:07:32.714Z,10.23
2022-07-25T01:08:35.582Z,8.63
2022-07-25T01:09:38.035Z,8.00
2022-07-25T01:10:40.600Z,9.18
2022-07-25T01:11:42.914Z,7.35
2022-07-25T01:12:49.135Z,7.97
2022-07-25T01:13:51.687Z,9.30
2022-07-25T01:14:53.894Z,10.05
2022-07-25T01:15:56.237Z,13.23
2022-07-25T01:16:58.542Z,8.50
2022-07-25T01:18:00.925Z,9.27
2022-07-25T01:19:03.762Z,7.80
2022-07-25T01:20:12.532Z,8.60
2022-07-25T01:21:14.787Z,10.48
2022-07-25T01:22:17.372Z,8.02
2022-07-25T01:23:19.769Z,7.55
2022-07-25T01:24:22.056Z,7.30
2022-07-25T01:25:25.052Z,9.15
2022-07-25T01:26:27.323Z,8.70
2022-07-25T01:27:29.634Z,9.85
2022-07-25T01:28:31.871Z,9.77
2022-07-25T01:29:34.292Z,9.82
2022-07-25T01:30:38.469Z,9.95
2022-07-25T01:31:40.972Z,8.70
2022-07-25T01:37:26.543Z,8.63
2022-07-25T01:38:28.830Z,7.95
2022-07-25T01:39:31.099Z,11.20
2022-07-25T01:40:33.357Z,11.15
2022-07-25T01:41:35.574Z,8.98
2022-07-25T01:42:38.011Z,8.07
2022-07-25T01:43:40.521Z,8.35
2022-07-25T01:44:42.800Z,10.75
2022-07-25T01:45:45.162Z,13.32
2022-07-25T01:46:47.457Z,9.23
2022-07-25T01:47:49.776Z,10.07
2022-07-25T01:48:52.200Z,9.05
2022-07-25T01:49:54.498Z,8.50
2022-07-25T01:50:56.862Z,10.18
2022-07-25T01:52:00.274Z,10.50
2022-07-25T01:53:02.602Z,11.63
2022-07-25T01:54:05.865Z,10.45
2022-07-25T01:55:12.914Z,10.95
2022-07-25T01:56:15.343Z,10.85
2022-07-25T01:57:17.595Z,9.43
2022-07-25T01:58:20.370Z,10.10
2022-07-25T01:59:23.757Z,10.50
2022-07-25T02:00:26.064Z,9.88
2022-07-25T02:01:28.398Z,9.88
2022-07-25T02:02:30.738Z,10.07
2022-07-25T02:03:33.133Z,9.38
2022-07-25T02:04:36.577Z,9.48
2022-07-25T02:05:38.997Z,8.88
2022-07-25T02:06:41.490Z,9.30
2022-07-25T02:07:43.889Z,8.27
2022-07-25T02:08:46.491Z,9.88
2022-07-25T02:09:54.756Z,8.32
2022-07-25T02:10:59.244Z,9.48
2022-07-25T02:12:01.838Z,8.68
2022-07-25T02:13:04.193Z,8.48
2022-07-25T02:14:07.143Z,9.20
2022-07-25T02:15:10.044Z,9.60
2022-07-25T02:16:12.382Z,8.50
2022-07-25T02:17:14.969Z,10.77
2022-07-25T02:18:17.444Z,8.10
2022-07-25T02:19:19.667Z,11.32
2022-07-25T02:20:21.983Z,10.68
2022-07-25T02:21:26.017Z,8.65
2022-07-25T02:22:28.293Z,8.00
2022-07-25T02:23:30.486Z,8.30
2022-07-25T02:24:32.766Z,11.77
2022-07-25T02:25:35.581Z,9.63
2022-07-25T02:26:37.898Z,8.95
2022-07-25T02:27:40.269Z,10.65
2022-07-25T02:28:42.646Z,13.18
2022-07-25T02:29:44.944Z,8.27
2022-07-25T02:30:47.346Z,10.05
2022-07-25T02:31:51.810Z,9.00
2022-07-25T02:32:54.074Z,9.88
2022-07-25T02:33:56.446Z,8.98
2022-07-25T02:34:58.638Z,8.70
2022-07-25T02:36:00.887Z,9.65
2022-07-25T02:37:03.177Z,9.50
2022-07-25T02:38:05.461Z,8.30
2022-07-25T02:39:07.784Z,11.02
2022-07-25T02:40:10.580Z,7.95
2022-07-25T02:41:12.828Z,8.82
2022-07-25T02:42:15.255Z,8.73
2022-07-25T02:43:18.395Z,10.02
2022-07-25T02:44:20.640Z,8.38
2022-07-25T02:45:22.849Z,8.18
2022-07-25T02:46:25.304Z,9.02
2022-07-25T02:47:27.643Z,9.65
2022-07-25T02:48:30.152Z,10.13
2022-07-25T02:49:32.488Z,9.05
2022-07-25T02:50:35.647Z,12.32
2022-07-25T02:51:37.904Z,8.70
2022-07-25T02:52:40.213Z,8.77
2022-07-25T02:53:58.857Z,8.35
2022-07-25T02:55:04.904Z,9.50
2022-07-25T02:56:11.286Z,9.20
2022-07-25T02:57:16.788Z,9.90
2022-07-25T02:58:19.104Z,12.18
2022-07-25T02:59:21.365Z,8.30
2022-07-25T03:00:23.937Z,10.45
2022-07-25T03:01:26.872Z,11.38
2022-07-25T03:02:29.107Z,13.70
2022-07-25T03:03:31.396Z,16.65
2022-07-25T03:04:34.033Z,13.15
2022-07-25T03:05:36.456Z,10.52
2022-07-25T03:06:38.725Z,9.43
2022-07-25T03:07:42.143Z,9.27
2022-07-25T03:08:44.381Z,10.18
2022-07-25T03:09:46.591Z,8.75
2022-07-25T03:10:48.958Z,12.40
2022-07-25T03:11:52.034Z,9.27
2022-07-25T03:12:54.223Z,13.43
2022-07-25T03:13:56.575Z,9.38
2022-07-25T03:14:59.821Z,10.57
2022-07-25T03:16:02.134Z,10.07
2022-07-25T03:17:04.474Z,9.98
2022-07-25T03:18:06.881Z,9.77
2022-07-25T03:19:10.644Z,9.05
2022-07-25T03:20:13.076Z,11.93
2022-07-25T03:21:15.333Z,9.48
2022-07-25T03:22:17.703Z,9.95
2022-07-25T03:23:19.995Z,11.10
2022-07-25T03:24:22.271Z,10.02
2022-07-25T03:25:24.608Z,12.25
2022-07-25T03:26:26.876Z,11.15
2022-07-25T03:27:29.353Z,13.77
2022-07-25T03:28:31.679Z,11.23
2022-07-25T03:29:34.321Z,11.77
2022-07-25T03:30:36.584Z,9.70
2022-07-25T03:31:38.958Z,10.20
2022-07-25T03:32:41.366Z,13.65
2022-07-25T03:33:43.675Z,10.50
2022-07-25T03:34:46.179Z,13.68
2022-07-25T03:35:48.690Z,12.23
2022-07-25T03:36:50.922Z,11.63
2022-07-25T03:37:53.614Z,11.82
2022-07-25T03:38:56.674Z,10.25
2022-07-25T03:39:58.932Z,14.52
2022-07-25T03:41:01.319Z,11.10
2022-07-25T03:42:03.749Z,11.32
2022-07-25T03:43:06.098Z,10.60
2022-07-25T03:44:08.879Z,13.73
2022-07-25T03:45:11.769Z,13.60
2022-07-25T03:46:14.488Z,15.50
2022-07-25T03:47:20.521Z,19.65
2022-07-25T03:48:23.255Z,12.68
2022-07-25T03:49:25.483Z,16.17
2022-07-25T03:50:27.835Z,13.57
2022-07-25T03:51:30.160Z,11.40
2022-07-25T03:52:32.543Z,11.40
2022-07-25T03:53:55.794Z,13.02
2022-07-25T03:54:58.150Z,15.10
2022-07-25T03:56:00.453Z,13.57
2022-07-25T03:57:02.779Z,9.45
2022-07-25T03:58:05.265Z,9.73
2022-07-25T03:59:08.348Z,10.77
2022-07-25T04:00:12.482Z,9.52
2022-07-25T04:01:14.898Z,10.68
2022-07-25T04:02:17.314Z,11.65
2022-07-25T04:03:19.870Z,11.88
2022-07-25T04:04:22.200Z,10.05
2022-07-25T04:05:24.643Z,11.30
2022-07-25T04:06:27.106Z,10.38
2022-07-25T04:07:30.528Z,10.27
2022-07-25T04:08:32.811Z,9.75
2022-07-25T04:09:35.192Z,14.82
2022-07-25T04:10:37.632Z,10.52
2022-07-25T04:11:39.900Z,11.07
2022-07-25T04:12:42.137Z,10.07
2022-07-25T04:13:44.494Z,13.52
2022-07-25T04:14:46.856Z,12.38
2022-07-25T04:15:49.116Z,11.50
2022-07-25T04:16:51.574Z,10.38
2022-07-25T04:17:53.816Z,11.90
2022-07-25T04:18:57.871Z,16.42
2022-07-25T04:20:00.178Z,13.55
2022-07-25T04:21:03.437Z,11.07
2022-07-25T04:22:05.752Z,13.13
2022-07-25T04:23:08.059Z,14.80
2022-07-25T04:24:10.428Z,11.77
2022-07-25T04:25:12.696Z,11.35
2022-07-25T04:26:15.201Z,14.05
2022-07-25T04:27:17.465Z,9.23
2022-07-25T04:28:19.765Z,9.95
2022-07-25T04:29:22.030Z,10.23
2022-07-25T04:30:24.986Z,11.65
2022-07-25T04:31:27.600Z,9.88
2022-07-25T04:32:30.623Z,10.18
2022-07-25T04:33:32.902Z,9.88
2022-07-25T04:34:35.190Z,12.32
2022-07-25T04:35:37.732Z,10.00
2022-07-25T04:36:40.067Z,11.30
2022-07-25T04:37:42.393Z,9.45
2022-07-25T04:38:45.417Z,10.43
2022-07-25T04:39:47.674Z,8.32
2022-07-25T04:40:50.486Z,14.90
2022-07-25T04:41:52.802Z,11.93
2022-07-25T04:42:55.021Z,11.02
2022-07-25T04:43:57.410Z,13.60
2022-07-25T04:44:59.660Z,9.23
2022-07-25T04:46:02.099Z,9.95
2022-07-25T04:47:05.027Z,8.38
2022-07-25T04:48:07.511Z,11.50
2022-07-25T04:49:09.845Z,9.73
2022-07-25T04:50:12.902Z,9.07
2022-07-25T04:51:16.270Z,12.52
2022-07-25T04:52:18.668Z,9.57
2022-07-25T04:53:20.994Z,11.50
2022-07-25T04:54:23.227Z,9.15
2022-07-25T04:55:25.734Z,8.88
2022-07-25T04:56:28.074Z,8.73
2022-07-25T04:57:30.581Z,10.20
2022-07-25T04:58:33.105Z,9.73
2022-07-25T04:59:35.319Z,8.93
2022-07-25T05:00:38.134Z,7.20
2022-07-25T05:01:40.483Z,15.40
2022-07-25T05:02:43.496Z,9.95
2022-07-25T05:03:50.067Z,8.80
2022-07-25T05:04:53.379Z,9.45
2022-07-25T05:05:55.751Z,8.60
2022-07-25T05:06:57.989Z,9.90
2022-07-25T05:08:00.821Z,13.77
2022-07-25T05:09:03.347Z,8.65
2022-07-25T05:10:06.113Z,8.02
2022-07-25T05:11:08.429Z,8.05
2022-07-25T05:12:10.738Z,10.02
2022-07-25T05:13:12.959Z,9.75
2022-07-25T05:14:15.568Z,9.18
2022-07-25T05:15:18.023Z,7.38
2022-07-25T05:16:20.293Z,10.85
2022-07-25T05:17:22.656Z,9.43
2022-07-25T05:18:24.998Z,8.38
2022-07-25T05:19:27.240Z,9.13
2022-07-25T05:20:29.591Z,8.45
2022-07-25T05:21:32.551Z,11.25
2022-07-25T05:22:34.791Z,8.10
2022-07-25T05:23:37.089Z,9.02
2022-07-25T05:24:39.346Z,9.77
2022-07-25T05:25:41.892Z,12.15
2022-07-25T05:26:44.157Z,15.05
2022-07-25T05:27:46.470Z,8.75
2022-07-25T05:28:48.892Z,8.02
2022-07-25T05:29:51.198Z,8.75
2022-07-25T05:30:53.441Z,9.25
2022-07-25T05:31:55.812Z,14.32
2022-07-25T05:32:58.187Z,8.23
2022-07-25T05:34:00.482Z,8.13
2022-07-25T05:35:03.497Z,13.02
2022-07-25T05:36:06.192Z,12.60
2022-07-25T05:37:08.489Z,7.85
2022-07-25T05:38:10.827Z,11.65
2022-07-25T05:39:13.275Z,8.20
2022-07-25T05:40:15.613Z,7.00
2022-07-25T05:41:17.874Z,13.30
2022-07-25T05:42:20.180Z,8.55
2022-07-25T05:43:22.723Z,7.43
2022-07-25T05:44:24.981Z,7.78
2022-07-25T05:45:27.238Z,8.05
2022-07-25T05:46:32.085Z,7.35
2022-07-25T05:47:34.569Z,12.13
2022-07-25T05:48:37.424Z,8.85
2022-07-25T05:49:39.877Z,10.05
2022-07-25T05:50:42.265Z,11.05
2022-07-25T05:51:44.518Z,9.00
2022-07-25T05:52:46.857Z,10.50
2022-07-25T05:53:49.138Z,12.57
2022-07-25T05:54:51.485Z,9.57
2022-07-25T05:55:54.262Z,9.77
2022-07-25T05:56:56.616Z,7.90
2022-07-25T05:57:59.412Z,7.60
2022-07-25T05:59:01.733Z,9.48
2022-07-25T06:00:06.115Z,7.15
2022-07-25T06:01:12.341Z,10.27
2022-07-25T06:02:14.689Z,7.70
2022-07-25T06:03:18.789Z,11.38
2022-07-25T06:04:26.813Z,10.10
2022-07-25T06:05:29.572Z,10.70
2022-07-25T06:06:32.729Z,10.27
2022-07-25T06:07:35.085Z,7.93
2022-07-25T06:08:38.459Z,9.00
2022-07-25T06:09:40.673Z,6.65
2022-07-25T06:10:43.243Z,7.53
2022-07-25T06:11:54.534Z,6.97
2022-07-25T06:13:02.316Z,7.80
2022-07-25T06:14:04.900Z,7.95
2022-07-25T06:15:12.644Z,9.13
2022-07-25T06:16:25.223Z,7.40
2022-07-25T06:17:32.105Z,6.50
2022-07-25T06:18:34.970Z,8.55
2022-07-25T06:19:37.278Z,10.90
2022-07-25T06:20:39.581Z,9.13
2022-07-25T06:21:41.817Z,7.22
2022-07-25T06:22:44.085Z,7.18
2022-07-25T06:23:46.381Z,8.48
2022-07-25T06:24:48.698Z,7.15
2022-07-25T06:25:50.995Z,6.47
2022-07-25T06:26:53.273Z,6.40
2022-07-25T06:27:55.528Z,6.75
2022-07-25T06:28:57.877Z,8.93
2022-07-25T06:30:00.124Z,9.18
2022-07-25T06:31:02.605Z,7.45
2022-07-25T06:32:05.227Z,7.05
2022-07-25T06:33:07.468Z,8.25
2022-07-25T06:34:10.287Z,8.20
2022-07-25T06:35:12.886Z,7.25
2022-07-25T06:36:15.452Z,6.90
2022-07-25T06:37:17.695Z,7.25
2022-07-25T06:38:20.051Z,7.45
2022-07-25T06:39:22.326Z,8.98
2022-07-25T06:40:24.805Z,10.45
2022-07-25T06:41:27.196Z,7.03
2022-07-25T06:42:31.331Z,8.95
2022-07-25T06:43:33.553Z,8.50
2022-07-25T06:44:35.844Z,6.35
2022-07-25T06:45:38.462Z,7.47
2022-07-25T06:46:41.202Z,8.23
2022-07-25T06:47:44.371Z,7.10
2022-07-25T06:48:46.857Z,9.05
2022-07-25T06:49:49.205Z,10.30
2022-07-25T06:50:51.667Z,15.25
2022-07-25T06:51:53.944Z,11.82
2022-07-25T06:52:56.206Z,14.18
2022-07-25T06:53:58.790Z,17.08
2022-07-25T06:55:01.323Z,18.27
2022-07-25T06:56:03.922Z,17.88
2022-07-25T06:57:06.174Z,14.48
2022-07-25T06:58:08.934Z,19.15
2022-07-25T06:59:11.668Z,16.42
2022-07-25T07:00:14.558Z,11.60
2022-07-25T07:01:16.836Z,12.15
2022-07-25T07:02:19.388Z,16.73
2022-07-25T07:03:21.895Z,18.70
2022-07-25T07:04:24.254Z,22.33
2022-07-25T07:05:29.752Z,15.25
2022-07-25T07:06:32.150Z,17.08
2022-07-25T07:07:34.606Z,19.40
2022-07-25T07:08:38.657Z,15.13
2022-07-25T07:09:40.963Z,18.38
2022-07-25T07:10:43.718Z,18.63
2022-07-25T07:11:46.036Z,21.85
2022-07-25T07:12:49.474Z,13.95
2022-07-25T07:13:52.241Z,8.77
2022-07-25T07:14:54.561Z,11.27
2022-07-25T07:15:56.898Z,9.70
2022-07-25T07:16:59.249Z,13.82
2022-07-25T07:18:01.496Z,18.50
2022-07-25T07:19:04.195Z,17.48
2022-07-25T07:20:08.340Z,16.02
2022-07-25T07:21:11.684Z,20.42
2022-07-25T07:22:23.461Z,18.08
2022-07-25T07:23:25.835Z,18.40
2022-07-25T07:24:31.188Z,24.58
2022-07-25T07:25:34.350Z,18.92
2022-07-25T07:26:36.813Z,23.10
2022-07-25T07:27:39.107Z,16.83
2022-07-25T07:28:41.662Z,16.83
2022-07-25T07:29:44.086Z,16.17
2022-07-25T07:32:08.850Z,17.33
2022-07-25T07:33:11.131Z,13.10
2022-07-25T07:34:16.217Z,15.90
2022-07-25T07:35:19.247Z,15.60
2022-07-25T07:36:22.112Z,16.65
2022-07-25T07:37:24.508Z,15.25
2022-07-25T07:38:27.235Z,17.52
2022-07-25T07:39:29.521Z,12.45
2022-07-25T07:40:32.056Z,13.00
2022-07-25T07:41:34.352Z,20.90
2022-07-25T07:42:47.934Z,18.38
2022-07-25T07:43:50.210Z,14.00
2022-07-25T07:44:52.529Z,11.23
2022-07-25T07:45:56.004Z,15.80
2022-07-25T07:47:02.538Z,10.23
2022-07-25T07:48:06.234Z,18.70
2022-07-25T07:49:08.898Z,12.45
2022-07-25T07:50:11.510Z,12.55
2022-07-25T07:51:13.834Z,16.35
2022-07-25T07:52:16.133Z,15.25
2022-07-25T07:53:18.554Z,10.52
2022-07-25T07:54:39.201Z,14.07
2022-07-25T07:55:44.411Z,14.68
2022-07-25T07:56:46.731Z,10.00
2022-07-25T07:57:49.100Z,9.02
2022-07-25T07:58:51.355Z,8.27
2022-07-25T07:59:53.850Z,8.15
2022-07-25T08:00:56.193Z,10.07
2022-07-25T08:01:58.614Z,8.32
2022-07-25T08:03:01.296Z,10.32
2022-07-25T08:04:03.858Z,10.18
2022-07-25T08:05:06.729Z,8.52
2022-07-25T08:06:09.101Z,9.23
2022-07-25T08:07:11.420Z,11.43
2022-07-25T08:08:15.232Z,7.43
2022-07-25T08:09:17.580Z,8.68
2022-07-25T08:10:22.330Z,8.80
2022-07-25T08:11:26.278Z,9.38
2022-07-25T08:12:28.565Z,9.43
2022-07-25T08:13:33.978Z,9.63
2022-07-25T08:14:36.296Z,7.25
2022-07-25T08:15:38.557Z,8.60
2022-07-25T08:16:40.942Z,10.90
2022-07-25T08:17:44.880Z,11.35
2022-07-25T08:18:47.264Z,8.30
2022-07-25T08:19:49.507Z,8.70
2022-07-25T08:20:52.394Z,9.95
2022-07-25T08:21:54.637Z,10.32
2022-07-25T08:22:57.115Z,9.80
2022-07-25T08:24:00.043Z,7.20
2022-07-25T08:25:02.337Z,8.85
2022-07-25T08:26:05.623Z,6.10
2022-07-25T08:27:07.918Z,9.73
2022-07-25T08:28:10.750Z,10.23
2022-07-25T08:29:22.961Z,8.15
2022-07-25T08:30:30.021Z,6.38
2022-07-25T08:31:32.320Z,10.20
2022-07-25T08:32:34.726Z,10.43
2022-07-25T08:33:37.295Z,9.98
2022-07-25T08:34:39.617Z,6.35
2022-07-25T08:35:51.706Z,6.68
2022-07-25T08:36:54.006Z,6.50
2022-07-25T08:37:56.917Z,8.43
2022-07-25T08:38:59.635Z,7.80
2022-07-25T08:40:01.858Z,8.32
2022-07-25T08:41:05.032Z,8.90
2022-07-25T08:42:11.115Z,9.07
2022-07-25T08:43:15.590Z,5.95
2022-07-25T08:44:18.846Z,13.50
2022-07-25T08:45:22.062Z,8.98
2022-07-25T08:46:24.600Z,8.07
2022-07-25T08:47:28.817Z,6.97
2022-07-25T08:48:31.417Z,7.40
2022-07-25T08:49:35.176Z,7.50
2022-07-25T08:50:39.094Z,6.70
2022-07-25T08:51:41.632Z,7.40
2022-07-25T08:52:45.708Z,7.97
2022-07-25T08:53:48.785Z,8.27
2022-07-25T08:54:51.376Z,6.32
2022-07-25T08:55:53.667Z,6.32
2022-07-25T08:56:56.008Z,8.43
2022-07-25T08:57:58.264Z,7.38
2022-07-25T08:59:00.517Z,6.35
2022-07-25T09:00:06.233Z,8.73
2022-07-25T09:01:08.739Z,11.25
2022-07-25T09:02:15.344Z,6.90
2022-07-25T09:03:17.932Z,7.18
2022-07-25T09:04:20.728Z,7.00
2022-07-25T09:05:24.580Z,9.48
2022-07-25T09:06:26.798Z,6.55
2022-07-25T09:07:31.577Z,11.77
2022-07-25T09:08:33.914Z,8.43
2022-07-25T09:09:39.420Z,10.13
2022-07-25T09:10:48.055Z,8.10
2022-07-25T09:11:50.389Z,10.07
2022-07-25T09:13:00.689Z,7.22
2022-07-25T09:14:09.712Z,9.30
2022-07-25T09:15:27.023Z,8.40
2022-07-25T09:16:40.893Z,7.30
2022-07-25T09:17:50.349Z,7.88
2022-07-25T09:18:52.623Z,6.70
2022-07-25T09:19:56.670Z,9.75
2022-07-25T09:21:00.761Z,13.13
2022-07-25T09:22:06.325Z,10.70
2022-07-25T09:23:15.607Z,7.35
2022-07-25T09:24:18.983Z,6.28
2022-07-25T09:25:21.956Z,6.43
2022-07-25T09:26:24.616Z,8.85
2022-07-25T09:27:34.422Z,6.28
2022-07-25T09:28:43.488Z,6.22
2022-07-25T09:29:45.898Z,10.00
2022-07-25T09:30:59.563Z,7.28
2022-07-25T09:32:13.374Z,9.75
2022-07-25T09:33:15.579Z,6.72
2022-07-25T09:34:45.776Z,8.50
2022-07-25T09:35:48.265Z,6.75
2022-07-25T09:36:52.947Z,7.93
2022-07-25T09:37:55.250Z,7.32
2022-07-25T09:39:02.439Z,7.40
2022-07-25T09:40:14.050Z,8.15
2022-07-25T09:41:16.447Z,7.93
2022-07-25T09:42:27.455Z,6.03
2022-07-25T09:43:40.640Z,8.38
2022-07-25T09:44:43.109Z,8.32
2022-07-25T09:45:52.173Z,7.93
2022-07-25T09:46:54.582Z,6.70
2022-07-25T09:48:00.121Z,6.10
2022-07-25T09:49:02.500Z,6.38
2022-07-25T09:50:06.628Z,7.28
2022-07-25T09:51:08.962Z,7.47
2022-07-25T09:52:12.454Z,6.68
2022-07-25T09:53:15.127Z,7.30
2022-07-25T09:54:18.064Z,5.80
2022-07-25T09:55:21.709Z,8.80
2022-07-25T09:56:24.031Z,7.95
2022-07-25T09:57:27.585Z,9.25
2022-07-25T09:58:30.068Z,7.15
2022-07-25T09:59:38.065Z,6.75
2022-07-25T10:00:42.551Z,6.18
2022-07-25T10:01:56.450Z,7.15
2022-07-25T10:03:20.840Z,7.32
2022-07-25T10:04:52.637Z,5.72
2022-07-25T10:05:57.727Z,7.15
2022-07-25T10:07:12.123Z,6.57
2022-07-25T10:08:15.147Z,6.93
2022-07-25T10:09:17.945Z,5.93
2022-07-25T10:10:32.278Z,7.10
2022-07-25T10:11:34.695Z,5.63
2022-07-25T10:12:38.200Z,8.48
2022-07-25T10:13:40.767Z,6.95
2022-07-25T10:14:43.186Z,5.78
2022-07-25T10:15:52.989Z,7.53
2022-07-25T10:16:55.431Z,5.38
2022-07-25T10:18:06.755Z,6.20
2022-07-25T10:19:09.073Z,6.15
2022-07-25T10:20:11.838Z,6.57
2022-07-25T10:21:25.444Z,7.13
2022-07-25T10:22:55.966Z,5.13
2022-07-25T10:24:06.401Z,7.88
2022-07-25T10:25:17.350Z,7.28
2022-07-25T10:26:20.280Z,5.30
2022-07-25T10:27:23.932Z,6.63
2022-07-25T10:28:40.130Z,9.10
2022-07-25T10:29:42.722Z,5.43
2022-07-25T10:30:45.161Z,9.07
2022-07-25T10:31:51.263Z,7.15
2022-07-25T10:32:58.478Z,5.95
2022-07-25T10:34:04.685Z,6.07
2022-07-25T10:35:16.021Z,5.88
2022-07-25T10:36:20.054Z,7.55
2022-07-25T10:37:32.527Z,6.82
2022-07-25T10:38:34.841Z,5.95
2022-07-25T10:39:39.099Z,5.03
2022-07-25T10:40:46.592Z,6.07
2022-07-25T10:42:00.339Z,9.52
2022-07-25T10:43:13.892Z,10.63
2022-07-25T10:44:16.476Z,6.03
2022-07-25T10:45:18.801Z,10.02
2022-07-25T10:46:23.438Z,7.22
2022-07-25T10:47:27.477Z,8.68
2022-07-25T10:48:33.228Z,7.35
2022-07-25T10:49:37.488Z,6.57
2022-07-25T10:50:56.804Z,5.10
2022-07-25T10:52:01.489Z,6.35
2022-07-25T10:53:09.091Z,6.07
2022-07-25T10:54:18.125Z,12.77
2022-07-25T10:55:23.939Z,6.28
2022-07-25T10:56:29.231Z,8.02
2022-07-25T10:57:32.338Z,8.48
2022-07-25T10:58:51.224Z,7.32
2022-07-25T10:59:53.588Z,11.23
2022-07-25T11:00:56.036Z,5.47
2022-07-25T11:01:59.153Z,5.57
2022-07-25T11:03:01.641Z,7.95
2022-07-25T11:04:14.340Z,8.75
2022-07-25T11:05:16.705Z,5.38
2022-07-25T11:06:31.761Z,7.03
2022-07-25T11:07:36.923Z,4.68
2022-07-25T11:08:39.236Z,6.97
2022-07-25T11:09:44.574Z,5.25
2022-07-25T11:10:51.416Z,4.70
2022-07-25T11:11:57.260Z,5.55
2022-07-25T11:12:59.530Z,8.43
2022-07-25T11:14:02.227Z,6.47
2022-07-25T11:15:07.448Z,4.70
2022-07-25T11:16:10.214Z,7.90
2022-07-25T11:17:20.861Z,5.30
2022-07-25T11:18:34.334Z,7.55
2022-07-25T11:19:36.572Z,7.47
2022-07-25T11:20:38.865Z,6.78
2022-07-25T11:21:45.795Z,7.90
2022-07-25T11:22:53.613Z,8.20
2022-07-25T11:23:55.920Z,7.45
2022-07-25T11:24:59.532Z,5.82
2022-07-25T11:26:10.597Z,5.65
2022-07-25T11:27:21.856Z,6.38
2022-07-25T11:28:24.149Z,7.93
2022-07-25T11:29:29.568Z,7.80
2022-07-25T11:30:32.411Z,7.72
2022-07-25T11:31:35.645Z,6.00
2022-07-25T11:32:40.434Z,6.97
2022-07-25T11:33:47.652Z,6.40
2022-07-25T11:34:53.467Z,6.55
2022-07-25T11:36:01.118Z,8.15
2022-07-25T11:37:07.874Z,6.13
2022-07-25T11:38:13.937Z,9.35
2022-07-25T11:39:18.965Z,7.40
2022-07-25T11:40:22.867Z,6.40
2022-07-25T11:41:30.138Z,5.97
2022-07-25T11:42:47.976Z,8.27
2022-07-25T11:43:50.255Z,5.38
2022-07-25T11:44:53.125Z,7.10
2022-07-25T11:45:58.097Z,6.00
2022-07-25T11:47:00.605Z,7.53
2022-07-25T11:48:11.449Z,11.32
2022-07-25T11:49:14.956Z,9.63
2022-07-25T11:50:17.365Z,5.07
2022-07-25T11:51:19.713Z,5.38
2022-07-25T11:52:30.559Z,6.10
2022-07-25T11:53:39.841Z,10.38
2022-07-25T11:54:51.422Z,7.10
2022-07-25T11:55:53.792Z,10.75
2022-07-25T11:56:56.030Z,6.47
2022-07-25T11:58:00.954Z,5.55
2022-07-25T11:59:03.354Z,11.25
2022-07-25T12:00:19.306Z,5.90
2022-07-25T12:01:21.776Z,7.82
2022-07-25T12:02:31.114Z,6.20
2022-07-25T12:03:38.055Z,5.07
2022-07-25T12:04:40.573Z,7.05
2022-07-25T12:05:43.229Z,4.50
2022-07-25T12:06:49.109Z,6.50
2022-07-25T12:07:54.423Z,5.10
2022-07-25T12:08:56.749Z,4.60
2022-07-25T12:09:59.048Z,5.05
2022-07-25T12:11:01.353Z,6.95
2022-07-25T12:12:04.326Z,4.82
2022-07-25T12:13:08.712Z,5.85
2022-07-25T12:14:11.759Z,6.13
2022-07-25T12:15:15.471Z,5.82
2022-07-25T12:16:17.947Z,6.40
2022-07-25T12:17:20.299Z,5.38
2022-07-25T12:18:22.588Z,8.27
2022-07-25T12:19:24.863Z,8.50
2022-07-25T12:20:28.209Z,5.90
2022-07-25T12:21:30.604Z,5.28
2022-07-25T12:22:32.968Z,5.47
2022-07-25T12:23:35.375Z,5.38
2022-07-25T12:24:37.686Z,7.15
2022-07-25T12:25:42.889Z,5.18
2022-07-25T12:26:45.276Z,6.25
2022-07-25T12:27:48.048Z,6.65
2022-07-25T12:28:50.375Z,8.05
2022-07-25T12:29:52.652Z,4.95
2022-07-25T12:30:56.882Z,6.05
2022-07-25T12:31:59.569Z,6.80
2022-07-25T12:33:01.904Z,7.88
2022-07-25T12:34:04.216Z,4.88
2022-07-25T12:35:08.284Z,7.88
2022-07-25T12:36:13.791Z,8.60
2022-07-25T12:37:15.995Z,8.10
2022-07-25T12:38:18.528Z,6.47
2022-07-25T12:39:20.784Z,5.38
2022-07-25T12:40:23.175Z,5.57
2022-07-25T12:41:25.787Z,4.78
2022-07-25T12:42:30.669Z,9.57
2022-07-25T12:43:32.915Z,5.93
2022-07-25T12:44:35.168Z,5.72
2022-07-25T12:45:37.773Z,5.38
2022-07-25T12:46:44.603Z,5.95
2022-07-25T12:47:51.225Z,6.78
2022-07-25T12:48:53.571Z,7.28
2022-07-25T12:49:56.259Z,11.63
2022-07-25T12:50:58.551Z,4.65
2022-07-25T12:52:00.892Z,5.80
2022-07-25T12:53:04.420Z,5.13
2022-07-25T12:54:07.002Z,6.35
2022-07-25T12:55:12.367Z,5.40
2022-07-25T12:56:15.714Z,5.28
2022-07-25T12:57:17.926Z,6.65
2022-07-25T12:58:21.137Z,4.82
2022-07-25T12:59:23.668Z,7.22
2022-07-25T13:00:26.050Z,5.43
2022-07-25T13:01:28.417Z,11.82
2022-07-25T13:02:30.776Z,10.32
2022-07-25T13:03:33.101Z,5.80
2022-07-25T13:04:35.597Z,5.82
2022-07-25T13:05:39.948Z,8.07
2022-07-25T13:06:42.333Z,7.43
2022-07-25T13:07:44.703Z,10.93
2022-07-25T13:08:47.519Z,9.73
2022-07-25T13:09:49.865Z,6.15
2022-07-25T13:10:52.217Z,5.50
2022-07-25T13:11:55.247Z,4.82
2022-07-25T13:12:57.512Z,5.78
2022-07-25T13:14:00.059Z,5.93
2022-07-25T13:15:02.596Z,5.22
2022-07-25T13:16:05.402Z,4.85
2022-07-25T13:17:07.923Z,6.75
2022-07-25T13:18:10.330Z,7.22
2022-07-25T13:19:13.497Z,8.23
2022-07-25T13:20:15.764Z,5.70
2022-07-25T13:21:18.719Z,5.53
2022-07-25T13:22:21.052Z,8.73
2022-07-25T13:23:23.366Z,6.25
2022-07-25T13:24:25.674Z,7.57
2022-07-25T13:25:28.014Z,10.02
2022-07-25T13:26:31.337Z,9.60
2022-07-25T13:27:33.607Z,6.93
2022-07-25T13:28:36.126Z,7.68
2022-07-25T13:29:38.505Z,6.43
2022-07-25T13:30:40.775Z,6.43
2022-07-25T13:31:43.627Z,5.30
2022-07-25T13:32:46.542Z,6.97
2022-07-25T13:33:49.141Z,10.55
2022-07-25T13:34:51.428Z,8.68
2022-07-25T13:35:53.770Z,8.02
2022-07-25T13:36:56.086Z,7.97
2022-07-25T13:37:58.346Z,5.25
2022-07-25T13:39:00.739Z,5.65
2022-07-25T13:40:03.639Z,7.72
2022-07-25T13:41:06.131Z,4.97
2022-07-25T13:42:08.509Z,8.75
2022-07-25T13:43:11.990Z,6.65
2022-07-25T13:44:15.313Z,5.07
2022-07-25T13:45:17.602Z,7.47
2022-07-25T13:46:20.001Z,9.75
2022-07-25T13:47:26.909Z,6.38
2022-07-25T13:48:32.502Z,6.00
2022-07-25T13:49:36.804Z,5.75
2022-07-25T13:50:39.174Z,5.65
2022-07-25T13:51:41.465Z,5.50
2022-07-25T13:52:43.760Z,6.57
2022-07-25T13:53:46.059Z,6.82
2022-07-25T13:54:48.273Z,4.75
2022-07-25T13:55:50.882Z,8.95
2022-07-25T13:56:53.217Z,5.57
2022-07-25T13:57:55.851Z,10.85
2022-07-25T13:58:58.070Z,6.53
2022-07-25T14:00:00.401Z,7.95
2022-07-25T14:01:02.807Z,6.57
2022-07-25T14:02:05.501Z,9.60
2022-07-25T14:03:07.903Z,10.45
2022-07-25T14:04:10.244Z,6.18
2022-07-25T14:05:12.971Z,7.60
2022-07-25T14:06:15.331Z,9.32